Time;durP1;ratioP1;P1;durP2;ratioP2;P2;SDS_P1;SDS_P2;PMS_P1;PMS_P2;Temp;Humidity;BMP_temperature;BMP_pressure;BME280_temperature;BME280_humidity;BME280_pressure;Samples;Min_cycle;Max_cycle;Signal;HPM_P1;HPM_P2
2021/05/25 00:00:11;;;;;;;;;0.00;0.00;;;;;24.01;35.36;100731.66;5083324;27;47489;-58
2021/05/25 00:02:37;;;;;;;;;1.00;0.00;;;;;24.02;35.06;100736.13;5086638;27;45459;-57
2021/05/25 00:05:04;;;;;;;;;1.00;0.00;;;;;23.95;35.17;100714.03;5089899;27;45406;-59
2021/05/25 00:07:29;;;;;;;;;0.00;0.00;;;;;24.00;34.91;100736.22;5077706;27;45409;-57
2021/05/25 00:09:55;;;;;;;;;0.00;0.00;;;;;24.01;34.85;100742.50;5075471;27;45848;-57
2021/05/25 00:12:20;;;;;;;;;2.00;1.00;;;;;24.01;35.08;100737.97;5086084;27;45467;-57
2021/05/25 00:14:46;;;;;;;;;0.00;0.00;;;;;24.01;34.91;100740.69;5092584;27;45508;-57
2021/05/25 00:17:12;;;;;;;;;0.00;0.00;;;;;24.01;34.71;100742.50;5076795;27;45448;-58
2021/05/25 00:19:37;;;;;;;;;0.00;0.00;;;;;23.99;34.79;100758.88;5075637;27;45463;-57
2021/05/25 00:22:02;;;;;;;;;0.00;0.00;;;;;24.00;35.05;100765.16;5085837;27;45492;-58
2021/05/25 00:24:28;;;;;;;;;0.67;0.00;;;;;24.03;34.80;100779.38;5076309;27;45370;-57
2021/05/25 00:26:53;;;;;;;;;1.00;0.00;;;;;24.03;34.67;100792.94;5071193;27;45494;-57
2021/05/25 00:29:18;;;;;;;;;0.00;0.00;;;;;24.02;34.81;100791.19;5071495;28;46146;-57
2021/05/25 00:31:44;;;;;;;;;0.00;0.00;;;;;23.99;34.68;100788.69;5075819;27;45365;-57
2021/05/25 00:34:09;;;;;;;;;0.00;0.00;;;;;24.02;34.99;100791.19;5075510;27;45491;-57
2021/05/25 00:36:37;;;;;;;;;0.00;0.00;;;;;24.03;34.65;100800.19;5076030;27;45639;-58
2021/05/25 00:39:06;;;;;;;;;0.33;0.33;;;;;24.00;34.68;100812.13;5078521;27;46736;-58
2021/05/25 00:41:33;;;;;;;;;0.00;0.00;;;;;24.00;34.87;100812.13;5076003;27;45522;-57
2021/05/25 00:43:58;;;;;;;;;0.00;0.00;;;;;24.03;34.65;100825.47;5072097;27;45491;-57
2021/05/25 00:46:23;;;;;;;;;0.00;0.00;;;;;24.02;34.66;100839.13;5073719;27;45372;-58
2021/05/25 00:48:49;;;;;;;;;0.00;0.00;;;;;23.98;34.65;100833.06;5074966;27;46798;-57
2021/05/25 00:51:14;;;;;;;;;0.00;0.00;;;;;23.99;34.56;100848.34;5075631;28;45412;-57
2021/05/25 00:53:39;;;;;;;;;0.00;0.00;;;;;24.01;34.52;100846.41;5077157;27;46040;-57
2021/05/25 00:56:05;;;;;;;;;0.00;0.00;;;;;24.02;35.00;100853.56;5087649;27;45459;-57
2021/05/25 00:58:34;;;;;;;;;0.00;0.00;;;;;23.98;34.67;100857.47;5077923;27;46678;-58
2021/05/25 01:01:00;;;;;;;;;0.00;0.00;;;;;24.02;34.62;100861.69;5080795;27;45447;-58
2021/05/25 01:03:25;;;;;;;;;1.00;0.00;;;;;24.02;34.71;100858.13;5073202;27;45472;-57
2021/05/25 01:05:51;;;;;;;;;0.00;0.00;;;;;23.99;34.73;100859.19;5081011;27;45463;-57
2021/05/25 01:08:17;;;;;;;;;0.00;0.00;;;;;23.96;34.70;100855.84;5079090;27;45590;-57
2021/05/25 01:10:48;;;;;;;;;0.00;0.00;;;;;23.98;34.86;100873.72;5093197;27;45243;-57
2021/05/25 01:13:24;;;;;;;;;0.00;0.00;;;;;24.03;34.70;100876.09;5084461;27;45628;-58
2021/05/25 01:15:51;;;;;;;;;0.00;0.00;;;;;24.02;34.73;100877.97;5091923;27;45425;-58
2021/05/25 01:18:18;;;;;;;;;0.00;0.00;;;;;24.03;35.00;100887.81;5090861;27;47300;-58
2021/05/25 01:20:46;;;;;;;;;0.00;0.00;;;;;24.00;34.99;100882.59;5084222;27;45301;-58
2021/05/25 01:23:11;;;;;;;;;0.00;0.00;;;;;24.03;34.38;100905.94;5092325;27;45413;-58
2021/05/25 01:25:42;;;;;;;;;0.00;0.00;;;;;24.03;34.52;100885.09;5087648;27;45516;-58
2021/05/25 01:28:10;;;;;;;;;0.00;0.00;;;;;24.03;34.43;100895.94;5086583;27;47507;-58
2021/05/25 01:30:39;;;;;;;;;0.00;0.00;;;;;23.98;34.53;100881.84;5087074;27;45310;-57
2021/05/25 01:33:06;;;;;;;;;0.00;0.00;;;;;24.03;34.45;100914.06;5093071;27;45495;-58
2021/05/25 01:35:31;;;;;;;;;0.00;0.00;;;;;23.97;34.54;100893.69;5084473;27;45644;-57
2021/05/25 01:37:58;;;;;;;;;0.00;0.00;;;;;23.98;34.80;100898.13;5078850;27;45713;-58
2021/05/25 01:40:25;;;;;;;;;0.00;0.00;;;;;23.98;34.83;100902.69;5083761;27;45425;-57
2021/05/25 01:42:50;;;;;;;;;0.00;0.00;;;;;23.98;34.64;100917.09;5087831;27;45328;-57
2021/05/25 01:45:25;;;;;;;;;0.00;0.00;;;;;23.99;34.46;100902.56;5084597;27;45671;-58
2021/05/25 01:47:52;;;;;;;;;0.00;0.00;;;;;23.98;34.74;100902.69;5081315;27;47519;-58
2021/05/25 01:50:19;;;;;;;;;0.00;0.00;;;;;23.97;34.88;100904.53;5085977;27;45495;-58
2021/05/25 01:52:47;;;;;;;;;0.33;0.00;;;;;23.95;34.66;100894.78;5073462;27;45280;-57
2021/05/25 01:55:22;;;;;;;;;0.00;0.00;;;;;23.98;34.32;100914.38;5079143;27;45663;-57
2021/05/25 01:57:47;;;;;;;;;0.00;0.00;;;;;23.97;34.34;100900.94;5078295;27;46391;-58
2021/05/25 02:00:13;;;;;;;;;0.00;0.00;;;;;23.96;34.33;100908.22;5087873;27;45399;-58
2021/05/25 02:02:38;;;;;;;;;0.00;0.00;;;;;23.95;34.29;100911.91;5096575;27;45428;-58
2021/05/25 02:05:04;;;;;;;;;0.00;0.00;;;;;23.95;34.46;100914.63;5073588;27;45368;-58
2021/05/25 02:07:29;;;;;;;;;0.00;0.00;;;;;23.95;34.40;100908.34;5076332;27;46537;-58
2021/05/25 02:09:55;;;;;;;;;0.00;0.00;;;;;23.93;34.55;100915.72;5086067;27;45498;-57
2021/05/25 02:12:20;;;;;;;;;0.00;0.00;;;;;23.93;34.46;100916.59;5092679;27;45494;-57
2021/05/25 02:14:45;;;;;;;;;0.00;0.00;;;;;23.91;34.46;100920.41;5080032;27;45199;-57
2021/05/25 02:17:11;;;;;;;;;0.00;0.00;;;;;23.87;34.28;100918.88;5081127;27;46523;-58
2021/05/25 02:19:37;;;;;;;;;0.00;0.00;;;;;23.91;34.38;100928.53;5083567;27;45355;-57
2021/05/25 02:22:02;;;;;;;;;0.00;0.00;;;;;23.92;34.69;100935.69;5083672;27;45544;-57
2021/05/25 02:24:28;;;;;;;;;0.00;0.00;;;;;23.91;34.48;100942.09;5081671;27;45229;-57
2021/05/25 02:26:53;;;;;;;;;1.00;0.00;;;;;23.87;34.35;100927.88;5083802;27;45602;-57
2021/05/25 02:29:18;;;;;;;;;0.00;0.00;;;;;23.87;34.58;100925.16;5079135;27;45400;-57
2021/05/25 02:31:44;;;;;;;;;0.00;0.00;;;;;23.87;34.18;100927.00;5085636;27;45439;-57
2021/05/25 02:34:09;;;;;;;;;0.00;0.00;;;;;23.90;34.20;100938.50;5081769;27;45419;-58
2021/05/25 02:36:34;;;;;;;;;0.00;0.00;;;;;23.87;34.57;100929.72;5081439;27;46393;-57
2021/05/25 02:39:00;;;;;;;;;0.00;0.00;;;;;23.89;34.45;100939.50;5078483;27;45428;-57
2021/05/25 02:41:25;;;;;;;;;0.00;0.00;;;;;23.89;34.41;100949.47;5087920;27;45316;-57
2021/05/25 02:43:53;;;;;;;;;0.00;0.00;;;;;23.87;34.48;100944.13;5085447;27;45440;-56
2021/05/25 02:46:18;;;;;;;;;0.00;0.00;;;;;23.87;34.32;100952.25;5077781;27;47268;-57
2021/05/25 02:48:43;;;;;;;;;0.00;0.00;;;;;23.87;34.73;100951.41;5085577;27;45478;-57
2021/05/25 02:51:09;;;;;;;;;0.00;0.00;;;;;23.85;34.68;100958.78;5090864;27;45478;-56
2021/05/25 02:53:34;;;;;;;;;0.00;0.00;;;;;23.85;34.57;100956.94;5088558;27;45523;-57
2021/05/25 02:56:00;;;;;;;;;0.00;0.00;;;;;23.85;34.47;100961.50;5079467;27;45270;-57
2021/05/25 02:58:25;;;;;;;;;0.00;0.00;;;;;23.85;34.52;100965.06;5081089;27;45258;-57
2021/05/25 03:00:51;;;;;;;;;0.00;0.00;;;;;23.84;34.53;100960.63;5077927;27;45340;-57
2021/05/25 03:03:17;;;;;;;;;0.00;0.00;;;;;23.84;34.36;100965.19;5089124;27;45389;-56
2021/05/25 03:05:44;;;;;;;;;0.00;0.00;;;;;23.84;34.60;100967.88;5079210;27;45538;-58
2021/05/25 03:08:11;;;;;;;;;0.00;0.00;;;;;23.80;34.75;100959.13;5080473;27;45462;-56
2021/05/25 03:10:39;;;;;;;;;0.00;0.00;;;;;23.82;34.95;100962.59;5081246;27;45522;-59
2021/05/25 03:13:04;;;;;;;;;0.00;0.00;;;;;23.80;34.59;100969.97;5080271;27;45440;-56
2021/05/25 03:15:34;;;;;;;;;0.00;0.00;;;;;23.80;34.77;100969.97;5079120;27;46034;-57
2021/05/25 03:18:00;;;;;;;;;0.00;0.00;;;;;23.79;34.49;100973.66;5078397;27;45546;-57
2021/05/25 03:20:26;;;;;;;;;0.00;0.00;;;;;23.80;34.59;100974.53;5077674;27;45464;-56
2021/05/25 03:22:51;;;;;;;;;0.00;0.00;;;;;23.81;34.45;100985.25;5077674;27;45488;-57
2021/05/25 03:25:18;;;;;;;;;0.00;0.00;;;;;23.81;34.53;100987.97;5076391;27;45343;-58
2021/05/25 03:27:43;;;;;;;;;0.00;0.00;;;;;23.81;34.74;100981.69;5079982;27;45453;-56
2021/05/25 03:30:12;;;;;;;;;0.00;0.00;;;;;23.81;34.80;100989.81;5088327;27;45501;-58
2021/05/25 03:32:38;;;;;;;;;0.00;0.00;;;;;23.80;34.47;100993.50;5091935;27;45436;-56
2021/05/25 03:35:06;;;;;;;;;0.00;0.00;;;;;23.79;34.46;100987.22;5078585;27;45432;-58
2021/05/25 03:37:33;;;;;;;;;0.00;0.00;;;;;23.81;34.46;100992.50;5079138;27;45801;-57
2021/05/25 03:39:59;;;;;;;;;0.00;0.00;;;;;23.80;34.83;100997.06;5086713;27;45483;-57
2021/05/25 03:42:24;;;;;;;;;0.00;0.00;;;;;23.81;34.30;100993.38;5092197;27;45364;-58
2021/05/25 03:44:49;;;;;;;;;0.00;0.00;;;;;23.80;34.98;101005.19;5089715;27;45398;-58
2021/05/25 03:47:15;;;;;;;;;0.00;0.00;;;;;23.79;34.81;101003.47;5082093;27;45793;-58
2021/05/25 03:49:40;;;;;;;;;0.00;0.00;;;;;23.82;34.89;101002.38;5090648;27;45336;-58
2021/05/25 03:52:06;;;;;;;;;0.00;0.00;;;;;23.81;34.38;101004.22;5084803;27;45672;-57
2021/05/25 03:54:38;;;;;;;;;0.00;0.00;;;;;23.78;34.88;101009.88;5085561;27;46728;-58
2021/05/25 03:57:12;;;;;;;;;0.33;0.00;;;;;23.78;34.72;101009.88;5089450;27;45572;-58
2021/05/25 03:59:37;;;;;;;;;0.00;0.00;;;;;23.77;34.61;101022.56;5084003;27;45421;-57
2021/05/25 04:02:02;;;;;;;;;0.00;0.00;;;;;23.81;34.65;101030.47;5079373;27;45476;-57
2021/05/25 04:04:28;;;;;;;;;0.00;0.00;;;;;23.75;34.59;101019.06;5078050;27;46461;-57
2021/05/25 04:06:53;;;;;;;;;0.00;0.00;;;;;23.80;34.55;101029.59;5084545;27;45496;-55
2021/05/25 04:09:18;;;;;;;;;0.00;0.00;;;;;23.78;34.74;101029.72;5075658;27;45355;-56
2021/05/25 04:11:44;;;;;;;;;0.00;0.00;;;;;23.82;34.34;101046.59;5079958;27;45355;-58
2021/05/25 04:14:09;;;;;;;;;0.00;0.00;;;;;23.80;34.65;101040.44;5088481;27;45711;-58
2021/05/25 04:16:35;;;;;;;;;0.00;0.00;;;;;23.80;34.76;101045.84;5084150;27;45539;-58
2021/05/25 04:19:00;;;;;;;;;0.00;0.00;;;;;23.78;34.84;101047.81;5078510;27;45393;-58
2021/05/25 04:21:25;;;;;;;;;0.33;0.33;;;;;23.77;34.61;101049.66;5075563;27;45487;-59
2021/05/25 04:23:51;;;;;;;;;0.00;0.00;;;;;23.82;34.96;101056.59;5076080;27;46782;-58
2021/05/25 04:26:16;;;;;;;;;0.00;0.00;;;;;23.81;34.93;101053.00;5079542;27;45365;-58
2021/05/25 04:28:42;;;;;;;;;0.00;0.00;;;;;23.79;34.71;101052.25;5079943;27;45402;-58
2021/05/25 04:31:07;;;;;;;;;1.00;1.00;;;;;23.82;34.41;101065.56;5077405;27;45531;-58
2021/05/25 04:33:32;;;;;;;;;0.00;0.00;;;;;23.79;34.62;101060.38;5083157;27;46297;-58
2021/05/25 04:35:58;;;;;;;;;0.00;0.00;;;;;23.82;34.47;101072.84;5075867;27;45293;-59
2021/05/25 04:38:23;;;;;;;;;0.00;0.00;;;;;23.82;34.53;101072.84;5078962;27;45309;-59
2021/05/25 04:40:48;;;;;;;;;0.00;0.00;;;;;23.78;34.82;101064.94;5079529;27;46544;-57
2021/05/25 04:43:14;;;;;;;;;0.00;0.00;;;;;23.82;34.68;101080.97;5079322;27;45812;-58
2021/05/25 04:45:41;;;;;;;;;0.00;0.00;;;;;23.81;34.90;101085.53;5077226;27;46338;-57
2021/05/25 04:48:08;;;;;;;;;0.00;0.00;;;;;23.78;34.58;101091.19;5079330;27;45695;-57
2021/05/25 04:50:34;;;;;;;;;0.00;0.00;;;;;23.79;34.54;101101.03;5078512;27;45511;-58
2021/05/25 04:52:59;;;;;;;;;0.00;0.00;;;;;23.75;34.57;101092.22;5076880;27;46067;-58
2021/05/25 04:55:25;;;;;;;;;0.00;0.00;;;;;23.79;34.55;101101.03;5076942;27;45373;-58
2021/05/25 04:57:50;;;;;;;;;1.33;1.00;;;;;23.81;34.49;101098.22;5076789;27;45601;-58
2021/05/25 05:00:19;;;;;;;;;0.00;0.00;;;;;23.80;34.93;101100.06;5074782;27;45688;-58
2021/05/25 05:02:44;;;;;;;;;0.00;0.00;;;;;23.80;34.45;101108.19;5069963;28;47381;-57
2021/05/25 05:05:11;;;;;;;;;0.00;0.00;;;;;23.77;34.64;101116.53;5070135;27;45424;-58
2021/05/25 05:07:37;;;;;;;;;0.00;0.00;;;;;23.80;34.63;101118.16;5072042;27;45592;-58
2021/05/25 05:10:04;;;;;;;;;0.00;0.00;;;;;23.77;34.63;101119.25;5074465;27;45436;-58
2021/05/25 05:12:30;;;;;;;;;0.33;0.00;;;;;23.75;34.48;101116.63;5071284;27;46078;-58
2021/05/25 05:14:56;;;;;;;;;0.00;0.00;;;;;23.76;34.49;101120.22;5075145;27;45337;-57
2021/05/25 05:17:26;;;;;;;;;0.00;0.00;;;;;23.79;34.49;101128.13;5073570;28;45427;-57
2021/05/25 05:19:52;;;;;;;;;0.00;0.00;;;;;23.79;34.66;101141.69;5072992;27;45581;-59
2021/05/25 05:22:17;;;;;;;;;0.33;0.33;;;;;23.80;34.54;101148.84;5074647;27;45462;-59
2021/05/25 05:24:44;;;;;;;;;0.00;0.00;;;;;23.78;34.67;101138.13;5075158;28;45685;-58
2021/05/25 05:27:10;;;;;;;;;0.00;0.00;;;;;23.80;34.66;101151.56;5075581;27;45536;-58
2021/05/25 05:29:35;;;;;;;;;0.00;0.00;;;;;23.78;34.47;101148.09;5074241;28;45448;-59
2021/05/25 05:32:00;;;;;;;;;0.00;0.00;;;;;23.79;34.59;101155.25;5073199;27;45716;-59
2021/05/25 05:34:26;;;;;;;;;2.33;1.00;;;;;23.76;34.43;101152.75;5069347;27;45596;-58
2021/05/25 05:36:51;;;;;;;;;0.00;0.00;;;;;23.80;34.42;101164.25;5082446;27;45406;-58
2021/05/25 05:39:17;;;;;;;;;2.00;0.00;;;;;23.77;34.68;101154.47;5078551;27;45917;-58
2021/05/25 05:41:42;;;;;;;;;1.00;1.00;;;;;23.77;34.34;101162.63;5074048;27;47863;-57
2021/05/25 05:44:08;;;;;;;;;0.00;0.00;;;;;23.77;34.62;101159.91;5079268;27;45329;-58
2021/05/25 05:46:33;;;;;;;;;0.00;0.00;;;;;23.75;34.59;101161.81;5077229;27;45414;-58
2021/05/25 05:48:58;;;;;;;;;0.00;0.00;;;;;23.78;34.61;101167.94;5078284;27;45563;-58
2021/05/25 05:51:24;;;;;;;;;2.00;1.00;;;;;23.77;34.61;101168.03;5081507;27;46513;-57
2021/05/25 05:53:50;;;;;;;;;0.33;0.00;;;;;23.80;34.49;101175.94;5077138;27;45456;-58
2021/05/25 05:56:19;;;;;;;;;0.00;0.00;;;;;23.79;34.52;101166.09;5078993;27;45407;-58
2021/05/25 05:58:46;;;;;;;;;1.00;1.00;;;;;23.81;34.73;101179.53;5078534;27;45530;-58
2021/05/25 06:01:12;;;;;;;;;0.00;0.00;;;;;23.80;34.84;101191.34;5077768;27;46382;-57
2021/05/25 06:03:38;;;;;;;;;0.00;0.00;;;;;23.80;34.94;101192.22;5077678;27;45455;-58
2021/05/25 06:06:04;;;;;;;;;0.00;0.00;;;;;23.82;34.73;101201.09;5077113;27;45710;-57
2021/05/25 06:08:29;;;;;;;;;0.33;0.33;;;;;23.78;34.56;101191.44;5077046;27;45560;-59
2021/05/25 06:10:55;;;;;;;;;0.00;0.00;;;;;23.82;34.94;101198.38;5074835;27;46178;-59
2021/05/25 06:13:21;;;;;;;;;0.33;0.33;;;;;23.82;34.51;101201.09;5076028;27;45496;-59
2021/05/25 06:15:47;;;;;;;;;0.00;0.00;;;;;23.81;34.86;101199.34;5076506;27;45606;-63
2021/05/25 06:18:13;;;;;;;;;0.00;0.00;;;;;23.84;34.92;101199.13;5079477;27;45448;-60
2021/05/25 06:20:39;;;;;;;;;0.00;0.00;;;;;23.90;34.64;101212.28;5077528;27;46572;-59
2021/05/25 06:23:04;;;;;;;;;2.00;1.00;;;;;23.91;34.56;101211.31;5074888;27;45566;-56
2021/05/25 06:25:30;;;;;;;;;0.00;0.00;;;;;23.96;34.83;101213.69;5076042;27;45779;-54
2021/05/25 06:27:56;;;;;;;;;0.00;0.00;;;;;23.97;34.89;101215.41;5075840;27;45401;-54
2021/05/25 06:30:22;;;;;;;;;0.00;0.00;;;;;24.02;34.58;101216.00;5075097;28;46787;-57
2021/05/25 06:32:48;;;;;;;;;0.00;0.00;;;;;24.02;34.71;101222.28;5073270;27;45528;-54
2021/05/25 06:35:13;;;;;;;;;0.00;0.00;;;;;24.04;34.57;101223.03;5076867;27;45369;-53
2021/05/25 06:37:39;;;;;;;;;1.00;0.00;;;;;24.05;34.80;101232.03;5079803;27;45413;-56
2021/05/25 06:40:05;;;;;;;;;0.00;0.00;;;;;24.08;34.34;101235.38;5077469;28;46630;-53
2021/05/25 06:42:31;;;;;;;;;1.00;1.00;;;;;24.06;34.47;101222.91;5077160;27;45384;-56
2021/05/25 06:44:56;;;;;;;;;0.00;0.00;;;;;24.10;34.48;101224.44;5075571;28;45753;-57
2021/05/25 06:47:21;;;;;;;;;2.33;1.00;;;;;24.10;34.29;101234.41;5077578;27;45503;-55
2021/05/25 06:49:47;;;;;;;;;0.00;0.00;;;;;24.13;34.42;101229.63;5076578;27;46279;-53
2021/05/25 06:52:12;;;;;;;;;0.00;0.00;;;;;24.10;34.27;101231.69;5081739;27;45509;-53
2021/05/25 06:54:38;;;;;;;;;0.33;0.00;;;;;24.13;34.44;101231.47;5077286;27;45474;-54
2021/05/25 06:57:04;;;;;;;;;0.00;0.00;;;;;24.15;34.20;101245.81;5075700;27;45511;-56
2021/05/25 06:59:29;;;;;;;;;0.00;0.00;;;;;24.16;34.53;101253.84;5075906;27;46726;-55
2021/05/25 07:01:55;;;;;;;;;0.67;0.67;;;;;24.18;34.31;101262.72;5075230;27;45558;-55
2021/05/25 07:04:20;;;;;;;;;0.33;0.33;;;;;24.17;34.44;101250.16;5074587;27;45512;-56
2021/05/25 07:06:46;;;;;;;;;1.00;1.00;;;;;24.19;34.13;101250.03;5076170;27;45549;-55
2021/05/25 07:09:12;;;;;;;;;1.00;1.00;;;;;24.19;34.37;101242.78;5076203;27;46594;-56
2021/05/25 07:11:37;;;;;;;;;0.67;0.67;;;;;24.22;34.20;101256.13;5077844;27;46368;-53
2021/05/25 07:14:03;;;;;;;;;2.33;1.00;;;;;24.22;34.63;101258.81;5079131;27;45379;-56
2021/05/25 07:16:29;;;;;;;;;1.00;1.00;;;;;24.24;34.33;101256.00;5072033;27;45543;-58
2021/05/25 07:18:54;;;;;;;;;0.00;0.00;;;;;24.23;34.33;101256.97;5073190;27;46379;-58
2021/05/25 07:21:20;;;;;;;;;0.00;0.00;;;;;24.22;34.21;101253.41;5077685;27;45474;-56
2021/05/25 07:23:45;;;;;;;;;0.00;0.00;;;;;24.27;34.37;101261.22;5080513;27;45793;-54
2021/05/25 07:26:10;;;;;;;;;0.00;0.00;;;;;24.24;34.15;101261.44;5080104;27;45463;-54
2021/05/25 07:28:36;;;;;;;;;0.67;0.67;;;;;24.26;34.20;101262.19;5078137;27;46923;-53
2021/05/25 07:31:02;;;;;;;;;0.33;0.33;;;;;24.24;34.18;101262.28;5080085;27;45624;-53
2021/05/25 07:33:27;;;;;;;;;0.00;0.00;;;;;24.26;34.21;101273.91;5073694;27;46218;-55
2021/05/25 07:35:53;;;;;;;;;1.00;0.00;;;;;24.27;33.85;101263.94;5071439;27;45557;-55
2021/05/25 07:38:20;;;;;;;;;1.67;1.67;;;;;24.28;34.25;101265.69;5080176;27;47748;-56
2021/05/25 07:40:45;;;;;;;;;0.00;0.00;;;;;24.28;34.47;101263.84;5081823;27;45548;-55
2021/05/25 07:43:11;;;;;;;;;0.00;0.00;;;;;24.29;34.20;101278.25;5069177;27;45369;-53
2021/05/25 07:45:36;;;;;;;;;0.00;0.00;;;;;24.29;34.33;101271.00;5073103;27;45500;-58
2021/05/25 07:48:02;;;;;;;;;1.00;0.00;;;;;24.28;33.93;101268.38;5071840;27;45534;-58
2021/05/25 07:50:27;;;;;;;;;1.33;0.00;;;;;24.29;34.34;101268.28;5071020;27;46248;-55
2021/05/25 07:52:55;;;;;;;;;1.33;1.00;;;;;24.31;34.31;101273.63;5070583;27;45529;-55
2021/05/25 07:55:24;;;;;;;;;1.00;1.00;;;;;24.29;34.27;101267.41;5073295;27;45531;-56
2021/05/25 07:57:50;;;;;;;;;0.00;0.00;;;;;24.31;34.05;101276.34;5085354;27;46079;-58
2021/05/25 08:00:17;;;;;;;;;1.33;1.33;;;;;24.30;34.16;101275.47;5071156;27;45669;-55
2021/05/25 08:02:43;;;;;;;;;0.00;0.00;;;;;24.29;34.02;101267.41;5073429;28;45475;-58
2021/05/25 08:05:10;;;;;;;;;0.00;0.00;;;;;24.30;34.10;101280.03;5075668;28;45620;-53
2021/05/25 08:07:36;;;;;;;;;0.00;0.00;;;;;24.33;33.83;101282.53;5069959;27;48310;-57
2021/05/25 08:10:04;;;;;;;;;0.00;0.00;;;;;24.34;34.13;101278.81;5075725;27;45491;-57
2021/05/25 08:12:30;;;;;;;;;0.67;0.67;;;;;24.34;33.95;101284.25;5075873;28;45367;-57
2021/05/25 08:14:57;;;;;;;;;0.00;0.00;;;;;24.33;34.07;101277.97;5078727;27;45335;-57
2021/05/25 08:17:35;;;;;;;;;0.00;0.00;;;;;24.33;33.96;101274.38;5059085;27;47674;-57
2021/05/25 08:20:16;;;;;;;;;0.00;0.00;;;;;24.34;34.08;101286.97;5074809;27;45453;-59
2021/05/25 08:22:44;;;;;;;;;2.00;0.33;;;;;24.33;33.95;101286.09;5074813;28;45400;-57
2021/05/25 08:25:11;;;;;;;;;0.33;0.33;;;;;24.31;34.03;101282.63;5073757;27;45568;-57
2021/05/25 08:27:37;;;;;;;;;0.00;0.00;;;;;24.31;33.92;101292.63;5074551;28;47330;-56
2021/05/25 08:30:05;;;;;;;;;0.00;0.00;;;;;24.28;33.76;101293.66;5069543;27;45576;-55
2021/05/25 08:32:30;;;;;;;;;0.67;0.67;;;;;24.28;33.78;101293.66;5074928;27;45549;-57
2021/05/25 08:34:55;;;;;;;;;0.33;0.33;;;;;24.26;33.79;101300.16;5076096;27;45638;-56
2021/05/25 08:37:21;;;;;;;;;1.33;0.00;;;;;24.24;33.60;101289.41;5074364;27;47466;-57
2021/05/25 08:39:46;;;;;;;;;0.00;0.00;;;;;24.20;33.73;101285.19;5071971;27;46962;-57
2021/05/25 08:42:13;;;;;;;;;0.67;0.67;;;;;24.21;33.87;101294.19;5075041;28;45581;-54
2021/05/25 08:44:38;;;;;;;;;0.00;0.00;;;;;24.19;33.88;101283.44;5074166;27;45519;-55
2021/05/25 08:47:04;;;;;;;;;0.00;0.00;;;;;24.22;34.19;101285.06;5074117;27;46191;-53
2021/05/25 08:49:29;;;;;;;;;1.00;1.00;;;;;24.22;34.19;101291.38;5075194;27;45722;-54
2021/05/25 08:51:55;;;;;;;;;1.33;0.33;;;;;24.28;34.30;101298.22;5075176;27;45480;-55
2021/05/25 08:54:20;;;;;;;;;1.00;1.00;;;;;24.28;34.46;101290.09;5073744;27;45515;-57
2021/05/25 08:56:46;;;;;;;;;0.67;0.67;;;;;24.27;34.40;101281.09;5073718;27;45523;-57
2021/05/25 08:59:11;;;;;;;;;0.00;0.00;;;;;24.32;34.26;101292.50;5071671;28;45988;-56
2021/05/25 09:01:36;;;;;;;;;0.00;0.00;;;;;24.33;34.31;101287.94;5068744;27;45426;-53
2021/05/25 09:04:04;;;;;;;;;1.33;1.33;;;;;24.38;34.33;101285.75;5070406;28;45448;-55
2021/05/25 09:06:55;;;;;;;;;0.00;0.00;;;;;24.41;34.28;101282.84;5073323;27;47754;-55
2021/05/25 09:09:21;;;;;;;;;0.00;0.00;;;;;24.40;33.97;101286.56;5068221;27;45468;-55
2021/05/25 09:12:04;;;;;;;;;0.00;0.00;;;;;24.46;34.17;101285.22;5067802;27;45808;-59
2021/05/25 09:14:34;;;;;;;;;1.33;0.00;;;;;24.46;34.25;101279.81;5074045;27;45432;-53
2021/05/25 09:17:22;;;;;;;;;0.67;0.67;;;;;24.50;34.20;101289.47;5069696;27;46466;-53
2021/05/25 09:19:51;;;;;;;;;0.00;0.00;;;;;24.52;34.07;101287.50;5068056;27;45483;-56
2021/05/25 09:22:35;;;;;;;;;0.00;0.00;;;;;24.49;34.18;101283.16;5070973;28;46898;-53
2021/05/25 09:25:16;;;;;;;;;1.00;1.00;;;;;24.51;34.13;101285.75;5073220;27;45604;-49
2021/05/25 09:27:46;;;;;;;;;0.33;0.00;;;;;24.56;33.90;101281.75;5065693;27;45585;-51
2021/05/25 09:30:26;;;;;;;;;0.00;0.00;;;;;24.57;33.73;101274.50;5074965;27;46054;-51
2021/05/25 09:33:06;;;;;;;;;1.00;1.00;;;;;24.56;33.92;101280.91;5064771;27;45853;-50
2021/05/25 09:35:34;;;;;;;;;0.00;0.00;;;;;24.59;33.86;101283.38;5062400;28;45548;-51
2021/05/25 09:38:06;;;;;;;;;1.00;1.00;;;;;24.58;33.65;101268.94;5071558;27;46841;-50
2021/05/25 09:40:32;;;;;;;;;0.00;0.00;;;;;24.57;34.07;101271.78;5059718;27;45594;-51
2021/05/25 09:43:11;;;;;;;;;0.00;0.00;;;;;24.55;33.81;101274.59;5071179;27;45635;-52
2021/05/25 09:45:36;;;;;;;;;0.00;0.00;;;;;24.51;33.86;101266.78;5070825;27;45564;-53
2021/05/25 09:48:05;;;;;;;;;0.33;0.33;;;;;24.51;33.69;101270.34;5072708;28;46823;-50
2021/05/25 09:50:31;;;;;;;;;0.00;0.00;;;;;24.48;33.93;101276.00;5073365;28;45466;-50
2021/05/25 09:53:06;;;;;;;;;1.00;1.00;;;;;24.47;33.85;101284.25;5073584;27;45438;-51
2021/05/25 09:55:51;;;;;;;;;0.00;0.00;;;;;24.42;33.48;101267.44;5060993;27;45328;-52
2021/05/25 09:58:18;;;;;;;;;0.00;0.00;;;;;24.43;33.90;101280.91;5067932;27;47674;-52
2021/05/25 10:00:46;;;;;;;;;0.00;0.00;;;;;24.41;33.77;101273.84;5072780;27;45489;-50
2021/05/25 10:03:19;;;;;;;;;0.00;0.00;;;;;24.40;33.51;101281.13;5070712;27;45620;-51
2021/05/25 10:05:52;;;;;;;;;0.00;0.00;;;;;24.38;33.72;101282.19;5066605;27;45471;-52
2021/05/25 10:08:21;;;;;;;;;0.33;0.33;;;;;24.35;33.61;101286.00;5063308;27;47518;-51
2021/05/25 10:10:46;;;;;;;;;0.00;0.00;;;;;24.34;33.83;101281.53;5068222;27;45461;-52
2021/05/25 10:13:13;;;;;;;;;0.00;0.00;;;;;24.30;33.81;101291.75;5065842;27;45355;-50
2021/05/25 10:15:42;;;;;;;;;0.00;0.00;;;;;24.30;34.01;101294.47;5072158;27;45579;-55
2021/05/25 10:18:12;;;;;;;;;0.00;0.00;;;;;24.30;33.75;101307.16;5064243;27;45538;-50
2021/05/25 10:20:38;;;;;;;;;0.67;0.67;;;;;24.28;33.78;101319.94;5068960;27;45673;-52
2021/05/25 10:23:04;;;;;;;;;0.00;0.00;;;;;24.28;33.64;101319.94;5071229;27;45522;-51
2021/05/25 10:25:32;;;;;;;;;1.00;0.00;;;;;24.25;33.74;101337.25;5072071;27;45578;-52
2021/05/25 10:27:58;;;;;;;;;1.00;0.00;;;;;24.22;33.71;101331.19;5070309;27;47443;-54
2021/05/25 10:30:24;;;;;;;;;3.33;2.33;;;;;24.22;33.92;101337.47;5071406;27;45360;-53
2021/05/25 10:33:04;;;;;;;;;28.00;26.75;;;;;24.22;34.01;101347.47;5075847;27;45648;-53
2021/05/25 10:35:48;;;;;;;;;36.25;32.25;;;;;24.22;34.26;101339.31;5071533;28;45546;-53
2021/05/25 10:38:14;;;;;;;;;35.00;32.50;;;;;24.21;34.48;101351.16;5068912;27;47371;-53
2021/05/25 10:40:41;;;;;;;;;33.00;31.50;;;;;24.18;34.64;101341.38;5072109;27;45692;-53
2021/05/25 10:43:34;;;;;;;;;34.75;33.00;;;;;24.20;34.41;101349.41;5073262;27;45910;-52
2021/05/25 10:46:12;;;;;;;;;33.50;31.25;;;;;24.18;34.69;101337.81;5071260;27;45670;-52
2021/05/25 10:49:11;;;;;;;;;31.00;28.75;;;;;24.17;34.58;101346.91;5070260;27;45365;-51
2021/05/25 10:51:48;;;;;;;;;26.75;26.75;;;;;24.16;34.68;101342.47;5074772;27;45626;-52
2021/05/25 10:54:27;;;;;;;;;26.25;24.25;;;;;24.15;34.75;101338.88;5073751;27;46274;-51
2021/05/25 10:56:54;;;;;;;;;25.00;23.50;;;;;24.14;34.67;101347.09;5073372;27;45636;-52
2021/05/25 10:59:20;;;;;;;;;21.50;20.25;;;;;24.13;34.78;101345.38;5080130;27;45844;-53
2021/05/25 11:01:58;;;;;;;;;16.00;16.00;;;;;24.14;34.48;101330.84;5067908;27;45519;-53
2021/05/25 11:04:37;;;;;;;;;16.00;16.00;;;;;24.14;34.82;101333.53;5068787;28;45350;-53
2021/05/25 11:07:35;;;;;;;;;13.75;13.50;;;;;24.14;34.89;101325.41;5065009;27;45473;-52
2021/05/25 11:10:28;;;;;;;;;12.00;12.00;;;;;24.14;35.40;101322.69;5068875;27;45745;-51
2021/05/25 11:13:14;;;;;;;;;12.75;12.00;;;;;24.15;34.51;101332.59;5081737;27;46106;-54
2021/05/25 11:16:19;;;;;;;;;9.25;9.25;;;;;24.16;34.66;101331.63;5058118;28;45682;-55
2021/05/25 11:24:30;;;;;;;;;7.25;7.25;;;;;24.17;34.70;101322.50;5072028;27;45524;-56
2021/05/25 11:27:04;;;;;;;;;5.00;5.00;;;;;24.18;34.62;101316.09;5073087;27;46514;-54
2021/05/25 11:29:33;;;;;;;;;6.25;4.75;;;;;24.16;34.97;101302.66;5078920;27;45476;-55
2021/05/25 11:32:04;;;;;;;;;3.00;3.00;;;;;24.19;34.36;101366.66;5076190;28;46326;-54